Time;durP1;ratioP1;P1;durP2;ratioP2;P2;SDS_P1;SDS_P2;PMS_P1;PMS_P2;Temp;Humidity;BMP_temperature;BMP_pressure;BME280_temperature;BME280_humidity;BME280_pressure;Samples;Min_cycle;Max_cycle;Signal;HPM_P1;HPM_P2
2022/10/02 00:01:06;;;;;;;4.75;0.90;;;;;;;;;;10565346;28;20137;-77
2022/10/02 00:06:13;;;;;;;2.10;0.98;;;;;;;;;;10548198;28;20044;-77
2022/10/02 00:11:19;;;;;;;0.65;0.40;;;;;;;;;;10546425;28;20071;-77
2022/10/02 00:16:28;;;;;;;1.98;0.85;;;;;;;;;;10557909;28;20467;-76
2022/10/02 00:21:45;;;;;;;0.98;0.65;;;;;;;;;;10574227;28;20039;-76
2022/10/02 00:26:52;;;;;;;2.38;0.80;;;;;;;;;;10568755;27;20066;-78
2022/10/02 00:31:59;;;;;;;1.48;0.82;;;;;;;;;;10555363;27;20453;-76
2022/10/02 00:37:07;;;;;;;2.60;1.02;;;;;;;;;;10568293;27;20096;-77
2022/10/02 00:42:25;;;;;;;1.42;0.90;;;;;;;;;;10572448;27;20040;-77
2022/10/02 00:47:32;;;;;;;3.10;1.00;;;;;;;;;;10570169;27;20043;-77
2022/10/02 00:52:49;;;;;;;2.35;1.02;;;;;;;;;;10572515;27;20040;-78
2022/10/02 00:58:08;;;;;;;3.45;0.80;;;;;;;;;;10569846;27;20064;-75
2022/10/02 01:03:15;;;;;;;2.55;1.05;;;;;;;;;;10565755;27;20042;-78
2022/10/02 01:08:20;;;;;;;1.17;0.80;;;;;;;;;;10565856;27;20044;-75
2022/10/02 01:13:23;;;;;;;5.18;1.13;;;;;;;;;;10567521;27;20042;-75
2022/10/02 01:18:27;;;;;;;0.80;0.65;;;;;;;;;;10563832;28;20036;-76
2022/10/02 01:23:46;;;;;;;4.63;1.30;;;;;;;;;;10621908;27;20046;-76
2022/10/02 01:28:50;;;;;;;6.65;1.20;;;;;;;;;;10580349;27;20053;-76
2022/10/02 01:33:52;;;;;;;4.00;1.27;;;;;;;;;;10575130;28;20068;-77
2022/10/02 01:38:55;;;;;;;2.25;1.00;;;;;;;;;;10574769;27;20386;-76
2022/10/02 01:44:02;;;;;;;4.27;1.20;;;;;;;;;;10568678;27;20042;-76
2022/10/02 01:49:16;;;;;;;1.60;1.10;;;;;;;;;;10557049;28;20031;-76
2022/10/02 01:54:21;;;;;;;2.35;0.80;;;;;;;;;;10549718;28;20047;-76
2022/10/02 01:59:30;;;;;;;2.65;0.82;;;;;;;;;;10565071;28;20085;-76
2022/10/02 02:04:35;;;;;;;4.50;1.00;;;;;;;;;;10567986;28;20040;-76
2022/10/02 02:09:39;;;;;;;0.30;0.30;;;;;;;;;;10563304;28;20514;-76
2022/10/02 02:14:47;;;;;;;0.82;0.60;;;;;;;;;;10567185;28;20097;-77
2022/10/02 02:19:52;;;;;;;4.13;0.77;;;;;;;;;;10576702;27;20128;-76
2022/10/02 02:24:58;;;;;;;1.27;0.88;;;;;;;;;;10565653;27;20040;-76
2022/10/02 02:30:04;;;;;;;1.48;0.80;;;;;;;;;;10562848;27;20032;-76
2022/10/02 02:35:10;;;;;;;2.30;0.93;;;;;;;;;;10562527;27;20501;-76
2022/10/02 02:40:14;;;;;;;0.60;0.35;;;;;;;;;;10560896;27;20036;-76
2022/10/02 02:45:19;;;;;;;2.58;1.05;;;;;;;;;;10563882;27;20443;-76
2022/10/02 02:50:26;;;;;;;5.55;0.82;;;;;;;;;;10558909;27;20036;-76
2022/10/02 02:55:31;;;;;;;4.60;0.75;;;;;;;;;;10565268;27;20070;-76
2022/10/02 03:00:35;;;;;;;1.05;0.70;;;;;;;;;;10565469;27;20587;-76
2022/10/02 03:05:41;;;;;;;2.35;0.75;;;;;;;;;;10559572;27;20044;-77
2022/10/02 03:10:49;;;;;;;1.52;1.00;;;;;;;;;;10572982;27;20039;-76
2022/10/02 03:16:01;;;;;;;1.73;0.75;;;;;;;;;;10556744;27;20404;-76
2022/10/02 03:21:08;;;;;;;2.30;0.73;;;;;;;;;;10572291;28;20035;-75
2022/10/02 03:26:13;;;;;;;0.73;0.52;;;;;;;;;;10558284;27;20532;-78
2022/10/02 03:31:19;;;;;;;1.55;0.65;;;;;;;;;;10541383;28;20039;-76
2022/10/02 03:36:23;;;;;;;2.50;0.90;;;;;;;;;;10549009;28;20559;-77
2022/10/02 03:41:26;;;;;;;2.90;0.95;;;;;;;;;;10564268;28;20032;-75
2022/10/02 03:46:30;;;;;;;1.15;0.70;;;;;;;;;;10564733;28;20035;-76
2022/10/02 03:51:33;;;;;;;2.35;0.80;;;;;;;;;;10551898;28;20036;-76
2022/10/02 03:56:38;;;;;;;0.73;0.63;;;;;;;;;;10569937;28;20043;-76
2022/10/02 04:01:44;;;;;;;3.70;0.85;;;;;;;;;;10571813;27;20028;-77
2022/10/02 04:06:51;;;;;;;3.28;1.10;;;;;;;;;;10576714;27;20052;-78
2022/10/02 04:11:58;;;;;;;0.85;0.60;;;;;;;;;;10570047;27;20028;-75
2022/10/02 04:17:04;;;;;;;1.75;0.68;;;;;;;;;;10579294;27;20054;-77
2022/10/02 04:22:08;;;;;;;2.90;0.95;;;;;;;;;;10566377;28;20123;-76
2022/10/02 04:27:14;;;;;;;2.05;0.68;;;;;;;;;;10552532;27;20048;-77
2022/10/02 04:32:22;;;;;;;1.98;0.65;;;;;;;;;;10574023;27;20123;-76
2022/10/02 04:37:47;;;;;;;3.83;0.90;;;;;;;;;;10561899;27;20499;-76
2022/10/02 04:43:01;;;;;;;1.40;0.52;;;;;;;;;;10559837;27;20096;-75
2022/10/02 04:48:33;;;;;;;1.00;0.90;;;;;;;;;;10567247;27;20031;-78
2022/10/02 04:53:45;;;;;;;4.25;1.15;;;;;;;;;;10560318;27;20035;-78
2022/10/02 04:58:56;;;;;;;1.80;0.95;;;;;;;;;;10551299;27;20152;-76
2022/10/02 05:04:12;;;;;;;2.15;1.10;;;;;;;;;;10564620;27;20125;-78
2022/10/02 05:09:18;;;;;;;1.58;0.73;;;;;;;;;;10568409;28;20472;-78
2022/10/02 05:14:33;;;;;;;0.40;0.40;;;;;;;;;;10568727;27;20036;-76
2022/10/02 05:19:42;;;;;;;3.08;0.77;;;;;;;;;;10572791;27;20496;-75
2022/10/02 05:24:48;;;;;;;3.38;1.45;;;;;;;;;;10554998;27;20039;-76
2022/10/02 05:30:09;;;;;;;3.97;0.98;;;;;;;;;;10577158;27;20511;-77
2022/10/02 05:35:23;;;;;;;2.78;1.20;;;;;;;;;;10564219;27;20043;-77
2022/10/02 05:40:30;;;;;;;3.42;1.27;;;;;;;;;;10572403;27;20070;-77
2022/10/02 05:45:36;;;;;;;6.10;1.20;;;;;;;;;;10575318;27;20039;-76
2022/10/02 05:50:41;;;;;;;3.63;1.23;;;;;;;;;;10619149;27;20047;-76
2022/10/02 05:55:46;;;;;;;3.78;1.42;;;;;;;;;;10615267;27;20044;-77
2022/10/02 06:00:51;;;;;;;3.55;1.10;;;;;;;;;;10604984;27;20102;-77
2022/10/02 06:05:58;;;;;;;3.92;1.25;;;;;;;;;;10566971;27;20036;-77
2022/10/02 06:11:05;;;;;;;2.45;0.90;;;;;;;;;;10574363;27;20044;-76
2022/10/02 06:16:11;;;;;;;4.88;1.50;;;;;;;;;;10536992;28;20035;-77
2022/10/02 06:21:19;;;;;;;7.30;2.35;;;;;;;;;;10574477;27;20081;-78
2022/10/02 06:26:26;;;;;;;3.60;0.90;;;;;;;;;;10564433;28;20142;-77
2022/10/02 06:31:34;;;;;;;3.28;1.20;;;;;;;;;;10562684;27;20044;-77
2022/10/02 06:36:48;;;;;;;2.67;1.20;;;;;;;;;;10561145;27;20039;-77
2022/10/02 06:41:55;;;;;;;1.50;1.13;;;;;;;;;;10558485;27;20078;-77
2022/10/02 06:47:03;;;;;;;3.45;1.65;;;;;;;;;;10564264;27;20126;-77
2022/10/02 06:52:12;;;;;;;6.72;1.73;;;;;;;;;;10571142;27;20043;-80
2022/10/02 06:57:25;;;;;;;3.10;1.45;;;;;;;;;;10573988;27;20043;-77
2022/10/02 07:02:33;;;;;;;3.78;1.20;;;;;;;;;;10566175;28;20044;-77
2022/10/02 07:07:43;;;;;;;4.15;1.67;;;;;;;;;;10568199;28;20055;-77
2022/10/02 07:12:57;;;;;;;2.35;1.00;;;;;;;;;;10567102;27;20036;-76
2022/10/02 07:18:07;;;;;;;3.05;0.73;;;;;;;;;;10563683;27;20040;-77
2022/10/02 07:23:25;;;;;;;9.88;1.50;;;;;;;;;;10529663;27;20044;-77
2022/10/02 07:28:32;;;;;;;2.47;0.70;;;;;;;;;;10560277;28;20514;-77
2022/10/02 07:33:43;;;;;;;1.45;1.13;;;;;;;;;;10566311;27;20072;-77
2022/10/02 07:38:53;;;;;;;5.53;1.40;;;;;;;;;;10560947;28;20028;-77
2022/10/02 07:44:02;;;;;;;5.40;2.25;;;;;;;;;;10564834;27;20038;-77
2022/10/02 07:49:22;;;;;;;4.03;1.50;;;;;;;;;;10546468;28;20050;-77
2022/10/02 07:54:46;;;;;;;5.40;1.70;;;;;;;;;;10567105;28;20043;-78
2022/10/02 07:59:50;;;;;;;6.50;1.50;;;;;;;;;;10549578;28;20126;-78
2022/10/02 08:04:57;;;;;;;4.20;1.55;;;;;;;;;;10543184;28;20067;-77
2022/10/02 08:10:03;;;;;;;4.03;1.48;;;;;;;;;;10566222;28;20404;-77
2022/10/02 08:15:06;;;;;;;2.78;1.30;;;;;;;;;;10563932;28;20514;-78
2022/10/02 08:20:16;;;;;;;3.67;0.95;;;;;;;;;;10563207;28;20490;-78
2022/10/02 08:25:23;;;;;;;3.25;1.02;;;;;;;;;;10560569;28;20115;-79
2022/10/02 08:30:26;;;;;;;3.78;1.13;;;;;;;;;;10561659;28;20031;-78
2022/10/02 08:35:35;;;;;;;2.63;0.88;;;;;;;;;;10561971;28;20032;-78
2022/10/02 08:40:57;;;;;;;5.10;1.40;;;;;;;;;;10561397;28;20032;-78
2022/10/02 08:46:12;;;;;;;5.65;1.42;;;;;;;;;;10565845;27;20036;-77
2022/10/02 08:51:36;;;;;;;3.80;1.48;;;;;;;;;;10567492;27;20353;-77
2022/10/02 08:56:38;;;;;;;;;;;;;;;;;;10566488;27;20044;-76
2022/10/02 09:01:56;;;;;;;4.05;1.70;;;;;;;;;;10571805;27;19946;-77
2022/10/02 09:07:20;;;;;;;5.72;1.48;;;;;;;;;;10579578;27;20089;-78
2022/10/02 09:12:57;;;;;;;3.03;1.52;;;;;;;;;;10560859;28;20083;-78
2022/10/02 09:18:10;;;;;;;17.13;6.38;;;;;;;;;;10576894;27;20072;-78
2022/10/02 09:23:25;;;;;;;3.75;1.80;;;;;;;;;;10547776;27;20118;-78
2022/10/02 09:28:50;;;;;;;13.32;2.63;;;;;;;;;;10568467;27;20114;-78
2022/10/02 09:34:05;;;;;;;4.47;1.77;;;;;;;;;;10555662;28;20085;-78
2022/10/02 09:39:27;;;;;;;5.38;1.92;;;;;;;;;;10554007;28;20075;-76
2022/10/02 09:44:57;;;;;;;3.92;1.73;;;;;;;;;;10559568;27;20197;-77
2022/10/02 09:50:19;;;;;;;6.47;1.70;;;;;;;;;;10563497;27;20598;-77
2022/10/02 09:55:35;;;;;;;8.07;1.58;;;;;;;;;;10573280;27;20047;-77
2022/10/02 10:01:01;;;;;;;3.25;1.60;;;;;;;;;;10571412;27;20050;-77
2022/10/02 10:06:24;;;;;;;5.72;1.40;;;;;;;;;;10560492;27;20114;-78
2022/10/02 10:11:35;;;;;;;7.68;1.23;;;;;;;;;;10562199;27;20233;-77
2022/10/02 10:17:12;;;;;;;4.88;1.70;;;;;;;;;;10566744;27;20074;-77
2022/10/02 10:22:39;;;;;;;4.30;1.48;;;;;;;;;;10565475;27;20123;-78
2022/10/02 10:28:15;;;;;;;4.28;1.08;;;;;;;;;;10485026;28;20141;-79
2022/10/02 10:33:50;;;;;;;4.15;1.50;;;;;;;;;;10395458;28;20140;-78
2022/10/02 10:38:59;;;;;;;3.28;1.50;;;;;;;;;;10462446;28;20055;-77
2022/10/02 10:44:15;;;;;;;4.22;1.90;;;;;;;;;;10544835;27;20454;-78
2022/10/02 10:49:36;;;;;;;2.65;1.13;;;;;;;;;;10564510;28;20050;-78
2022/10/02 10:54:50;;;;;;;2.08;1.38;;;;;;;;;;10532358;27;20051;-78
2022/10/02 10:59:58;;;;;;;1.75;1.50;;;;;;;;;;10556988;27;20048;-78
2022/10/02 11:05:09;;;;;;;2.55;1.10;;;;;;;;;;10560479;27;20042;-78
2022/10/02 11:10:22;;;;;;;1.38;1.10;;;;;;;;;;10549866;28;20417;-77
2022/10/02 11:15:37;;;;;;;2.42;1.00;;;;;;;;;;10570768;27;20027;-78
2022/10/02 11:20:56;;;;;;;0.65;0.65;;;;;;;;;;10557909;28;20709;-78
2022/10/02 11:26:14;;;;;;;0.95;0.70;;;;;;;;;;10548104;27;20035;-78
2022/10/02 11:31:24;;;;;;;1.25;1.15;;;;;;;;;;10568237;27;20047;-78
2022/10/02 11:36:40;;;;;;;1.15;1.15;;;;;;;;;;10557385;28;20445;-78
2022/10/02 11:42:04;;;;;;;0.80;0.80;;;;;;;;;;10566583;27;20459;-78
2022/10/02 11:47:22;;;;;;;0.50;0.50;;;;;;;;;;10565360;28;20031;-78
2022/10/02 11:52:34;;;;;;;0.60;0.60;;;;;;;;;;10558523;28;20051;-79
2022/10/02 11:57:46;;;;;;;0.40;0.40;;;;;;;;;;10569465;28;20487;-79
2022/10/02 12:02:53;;;;;;;1.52;0.60;;;;;;;;;;10565592;28;20307;-79
2022/10/02 12:14:26;;;;;;;0.60;0.60;;;;;;;;;;10554611;28;20127;-79
2022/10/02 12:19:35;;;;;;;1.20;0.52;;;;;;;;;;10578089;27;20050;-79
2022/10/02 12:30:17;;;;;;;1.45;1.35;;;;;;;;;;10596832;27;20047;-81
2022/10/02 12:35:45;;;;;;;0.57;0.57;;;;;;;;;;10572932;27;20027;-78
2022/10/02 12:41:34;;;;;;;0.60;0.60;;;;;;;;;;10573247;27;20036;-79
2022/10/02 12:46:58;;;;;;;1.25;0.70;;;;;;;;;;10573442;27;20041;-78
2022/10/02 12:52:22;;;;;;;0.80;0.63;;;;;;;;;;10547169;27;20043;-79
2022/10/02 12:57:54;;;;;;;1.20;0.65;;;;;;;;;;10576198;28;20099;-78
2022/10/02 13:03:12;;;;;;;1.15;0.80;;;;;;;;;;10574706;27;20092;-79
2022/10/02 13:08:32;;;;;;;1.48;0.55;;;;;;;;;;10558807;27;20104;-80
2022/10/02 13:13:49;;;;;;;1.77;0.90;;;;;;;;;;10576342;27;20043;-79
2022/10/02 13:18:59;;;;;;;0.98;0.80;;;;;;;;;;10575887;28;20072;-80
2022/10/02 13:24:08;;;;;;;2.38;1.25;;;;;;;;;;10568575;27;20067;-79
2022/10/02 13:29:19;;;;;;;3.88;1.50;;;;;;;;;;10577009;27;20490;-78
2022/10/02 13:34:35;;;;;;;5.75;2.13;;;;;;;;;;10570634;27;20046;-78
2022/10/02 13:39:51;;;;;;;4.88;1.77;;;;;;;;;;10550104;27;20036;-80
2022/10/02 13:44:53;;;;;;;;;;;;;;;;;;10570247;27;20046;-77
2022/10/02 13:50:06;;;;;;;4.60;1.93;;;;;;;;;;10571265;27;19928;-77
2022/10/02 13:55:21;;;;;;;2.75;1.10;;;;;;;;;;10568532;27;20309;-77
2022/10/02 14:00:39;;;;;;;1.38;1.00;;;;;;;;;;10568958;27;20028;-77
2022/10/02 14:05:45;;;;;;;2.35;1.50;;;;;;;;;;10570082;27;20046;-77
2022/10/02 14:10:58;;;;;;;2.25;1.15;;;;;;;;;;10567468;27;20047;-78
2022/10/02 14:16:07;;;;;;;3.55;1.13;;;;;;;;;;10573173;27;20031;-77
2022/10/02 14:21:16;;;;;;;1.58;0.90;;;;;;;;;;10563907;28;20522;-77
2022/10/02 14:26:23;;;;;;;0.80;0.60;;;;;;;;;;10566989;27;20035;-77
2022/10/02 14:31:41;;;;;;;0.85;0.80;;;;;;;;;;10566403;27;20043;-78
2022/10/02 14:36:50;;;;;;;1.10;0.68;;;;;;;;;;10566180;27;20043;-78
2022/10/02 14:42:02;;;;;;;1.45;0.70;;;;;;;;;;10571156;27;20126;-76
2022/10/02 14:47:11;;;;;;;2.13;1.00;;;;;;;;;;10567656;27;20045;-78
2022/10/02 14:52:25;;;;;;;1.17;0.73;;;;;;;;;;10566387;27;20036;-78
2022/10/02 14:57:37;;;;;;;1.92;0.73;;;;;;;;;;10570451;27;20051;-77
2022/10/02 15:03:03;;;;;;;1.35;0.70;;;;;;;;;;10564466;27;20075;-78
2022/10/02 15:08:11;;;;;;;1.35;0.88;;;;;;;;;;10556938;27;20178;-77
2022/10/02 15:13:23;;;;;;;1.42;0.75;;;;;;;;;;10567297;27;20044;-77
2022/10/02 15:18:36;;;;;;;1.50;1.10;;;;;;;;;;10579402;27;20031;-78
2022/10/02 15:23:40;;;;;;;;;;;;;;;;;;10566692;28;20379;-77
2022/10/02 15:28:52;;;;;;;2.20;0.90;;;;;;;;;;10566476;27;19926;-77
2022/10/02 15:34:00;;;;;;;2.53;1.30;;;;;;;;;;10568748;27;20046;-77
2022/10/02 15:39:09;;;;;;;1.75;1.10;;;;;;;;;;10563353;28;20035;-79
2022/10/02 15:44:35;;;;;;;1.30;1.00;;;;;;;;;;10568900;27;20146;-79
2022/10/02 15:49:44;;;;;;;2.28;1.45;;;;;;;;;;10551807;28;20040;-82
2022/10/02 15:54:54;;;;;;;2.78;1.38;;;;;;;;;;10588366;28;20039;-77
2022/10/02 16:00:01;;;;;;;1.27;0.80;;;;;;;;;;10620320;27;20071;-76
2022/10/02 16:05:20;;;;;;;9.43;4.13;;;;;;;;;;10609100;27;20063;-77
2022/10/02 16:10:24;;;;;;;1.90;1.00;;;;;;;;;;10599723;27;20036;-78
2022/10/02 16:15:32;;;;;;;1.30;0.82;;;;;;;;;;10589722;27;20040;-79
2022/10/02 16:20:48;;;;;;;2.95;1.20;;;;;;;;;;10591231;27;20090;-81
2022/10/02 16:26:06;;;;;;;1.13;0.70;;;;;;;;;;10584109;28;20112;-85
2022/10/02 16:31:28;;;;;;;3.58;1.23;;;;;;;;;;10564079;28;20062;-84
2022/10/02 16:36:37;;;;;;;2.47;0.98;;;;;;;;;;10577757;27;20277;-80
2022/10/02 16:41:50;;;;;;;1.25;0.93;;;;;;;;;;10573155;27;20036;-80
2022/10/02 16:47:05;;;;;;;3.63;1.42;;;;;;;;;;10576757;27;20051;-80
2022/10/02 16:52:14;;;;;;;2.90;1.55;;;;;;;;;;10571630;27;20043;-80
2022/10/02 16:57:21;;;;;;;4.93;2.40;;;;;;;;;;10587536;27;20047;-80
2022/10/02 17:02:28;;;;;;;4.05;2.13;;;;;;;;;;10572526;27;20548;-79
2022/10/02 17:07:37;;;;;;;4.78;2.58;;;;;;;;;;10571905;27;20050;-80
2022/10/02 17:12:42;;;;;;;5.90;2.97;;;;;;;;;;10572287;27;20038;-82
2022/10/02 17:18:05;;;;;;;3.55;2.20;;;;;;;;;;10586771;27;20054;-82
2022/10/02 17:23:13;;;;;;;3.08;1.65;;;;;;;;;;10566976;27;20040;-82
2022/10/02 17:28:24;;;;;;;3.55;1.70;;;;;;;;;;10569935;27;20124;-80
2022/10/02 17:33:31;;;;;;;3.95;1.77;;;;;;;;;;10557137;27;20036;-82
2022/10/02 17:38:40;;;;;;;4.03;1.40;;;;;;;;;;10560984;27;20057;-82
2022/10/02 17:43:50;;;;;;;3.45;1.80;;;;;;;;;;10563264;27;20055;-83
2022/10/02 17:48:56;;;;;;;7.15;2.42;;;;;;;;;;10574543;27;20047;-82
2022/10/02 17:59:41;;;;;;;4.38;2.15;;;;;;;;;;10572327;27;20568;-83
2022/10/02 18:04:48;;;;;;;4.03;2.40;;;;;;;;;;10570732;27;20061;-83
2022/10/02 18:09:56;;;;;;;4.35;2.03;;;;;;;;;;10558212;27;20036;-80
2022/10/02 18:15:20;;;;;;;6.03;2.78;;;;;;;;;;10550965;27;20148;-80
2022/10/02 18:20:24;;;;;;;;;;;;;;;;;;10542914;27;20066;-79
2022/10/02 18:25:40;;;;;;;16.95;6.43;;;;;;;;;;10585103;27;19930;-79
2022/10/02 18:30:48;;;;;;;3.75;2.17;;;;;;;;;;10577121;27;20063;-78
2022/10/02 18:36:00;;;;;;;4.38;1.92;;;;;;;;;;10578479;27;20142;-77
2022/10/02 18:41:20;;;;;;;5.10;2.63;;;;;;;;;;10577788;27;20043;-78
2022/10/02 18:46:31;;;;;;;5.68;3.05;;;;;;;;;;10560749;27;20100;-79
2022/10/02 18:51:40;;;;;;;4.65;2.58;;;;;;;;;;10575465;27;20035;-78
2022/10/02 18:56:52;;;;;;;2.45;1.80;;;;;;;;;;10564664;27;20487;-79
2022/10/02 19:02:04;;;;;;;3.63;1.90;;;;;;;;;;10571668;27;20119;-80
2022/10/02 19:07:11;;;;;;;4.82;1.77;;;;;;;;;;10578864;27;20108;-76
2022/10/02 19:12:17;;;;;;;3.30;2.00;;;;;;;;;;10564532;27;20055;-79
2022/10/02 19:17:23;;;;;;;3.58;2.00;;;;;;;;;;10582425;27;20398;-77
2022/10/02 19:22:29;;;;;;;2.45;1.58;;;;;;;;;;10584798;27;20040;-77
2022/10/02 19:27:34;;;;;;;4.15;1.92;;;;;;;;;;10580749;27;20040;-79
2022/10/02 19:32:40;;;;;;;4.18;2.08;;;;;;;;;;10583647;27;20032;-78
2022/10/02 19:37:44;;;;;;;3.42;2.20;;;;;;;;;;10564754;27;20040;-78
2022/10/02 19:42:50;;;;;;;2.75;1.73;;;;;;;;;;10583713;27;20163;-76
2022/10/02 19:47:55;;;;;;;3.45;1.70;;;;;;;;;;10573925;27;20039;-77
2022/10/02 19:52:59;;;;;;;3.25;2.05;;;;;;;;;;10567411;28;20409;-76
2022/10/02 19:58:09;;;;;;;3.83;2.17;;;;;;;;;;10569407;28;20024;-76
2022/10/02 20:03:15;;;;;;;3.33;1.92;;;;;;;;;;10564661;28;20503;-77
2022/10/02 20:08:21;;;;;;;17.85;7.90;;;;;;;;;;10573377;28;20521;-76
2022/10/02 20:13:28;;;;;;;3.92;1.90;;;;;;;;;;10574497;28;20649;-76
2022/10/02 20:18:39;;;;;;;3.53;1.98;;;;;;;;;;10576780;28;20067;-76
2022/10/02 20:23:46;;;;;;;3.72;1.73;;;;;;;;;;10568960;28;20049;-76
2022/10/02 20:28:54;;;;;;;3.75;1.80;;;;;;;;;;10553716;28;20146;-77
2022/10/02 20:33:58;;;;;;;4.03;1.80;;;;;;;;;;10579077;28;20597;-77
2022/10/02 20:39:03;;;;;;;4.65;1.75;;;;;;;;;;10579419;28;20039;-76
2022/10/02 20:44:08;;;;;;;4.47;1.88;;;;;;;;;;10575003;27;20477;-76
2022/10/02 20:49:23;;;;;;;1.83;1.30;;;;;;;;;;10587484;27;20118;-75
2022/10/02 20:54:31;;;;;;;4.32;1.52;;;;;;;;;;10567769;27;20665;-78
2022/10/02 20:59:52;;;;;;;2.08;1.48;;;;;;;;;;10573912;27;20127;-76
2022/10/02 21:05:20;;;;;;;2.47;1.63;;;;;;;;;;10590594;27;20039;-76
2022/10/02 21:10:50;;;;;;;2.83;1.80;;;;;;;;;;10581062;27;20130;-78
2022/10/02 21:16:04;;;;;;;2.97;1.65;;;;;;;;;;10561593;27;20039;-76
2022/10/02 21:21:25;;;;;;;4.20;1.80;;;;;;;;;;10578030;27;20035;-76
2022/10/02 21:26:42;;;;;;;2.30;1.40;;;;;;;;;;10584481;27;20054;-77
2022/10/02 21:31:57;;;;;;;2.40;1.67;;;;;;;;;;10569064;27;20035;-77
2022/10/02 21:37:12;;;;;;;4.43;2.25;;;;;;;;;;10569928;27;20516;-77
2022/10/02 21:42:33;;;;;;;4.82;2.50;;;;;;;;;;10585835;27;20092;-76
2022/10/02 21:47:54;;;;;;;5.20;2.45;;;;;;;;;;10581309;27;20196;-77
2022/10/02 21:53:16;;;;;;;4.80;2.47;;;;;;;;;;10573621;27;20059;-77
2022/10/02 21:58:35;;;;;;;5.07;2.30;;;;;;;;;;10600390;27;20592;-76
2022/10/02 22:03:47;;;;;;;4.20;2.35;;;;;;;;;;10573792;27;20050;-76
2022/10/02 22:08:55;;;;;;;1.63;1.30;;;;;;;;;;10574394;27;20075;-76
2022/10/02 22:14:01;;;;;;;3.20;1.95;;;;;;;;;;10563707;27;20039;-76
2022/10/02 22:19:11;;;;;;;3.72;1.90;;;;;;;;;;10550502;27;20456;-76
2022/10/02 22:24:33;;;;;;;2.85;1.58;;;;;;;;;;10571269;27;20108;-76
2022/10/02 22:29:40;;;;;;;3.65;1.65;;;;;;;;;;10561980;27;20102;-76
2022/10/02 22:34:49;;;;;;;3.08;1.50;;;;;;;;;;10581350;27;20036;-76
2022/10/02 22:39:55;;;;;;;3.00;1.55;;;;;;;;;;10582422;27;20042;-77
2022/10/02 22:45:01;;;;;;;3.10;1.67;;;;;;;;;;10587221;27;20053;-76
2022/10/02 22:50:08;;;;;;;2.55;1.70;;;;;;;;;;10581112;27;20047;-77
2022/10/02 22:55:15;;;;;;;2.67;1.48;;;;;;;;;;10580637;27;20065;-77
2022/10/02 23:00:19;;;;;;;3.63;1.58;;;;;;;;;;10561315;27;20033;-76
2022/10/02 23:05:36;;;;;;;4.32;1.80;;;;;;;;;;10578161;27;20035;-77
2022/10/02 23:10:45;;;;;;;4.78;2.00;;;;;;;;;;10584316;27;20131;-76
2022/10/02 23:15:52;;;;;;;3.30;1.75;;;;;;;;;;10560210;27;20035;-76
2022/10/02 23:21:01;;;;;;;6.20;3.10;;;;;;;;;;10571372;27;20221;-76
2022/10/02 23:26:07;;;;;;;5.97;2.42;;;;;;;;;;10564481;27;20442;-76
2022/10/02 23:31:15;;;;;;;5.10;2.55;;;;;;;;;;10573072;27;20475;-76
2022/10/02 23:36:23;;;;;;;8.82;3.17;;;;;;;;;;10566157;27;20059;-76
2022/10/02 23:41:38;;;;;;;6.55;3.20;;;;;;;;;;10563093;28;20066;-76
2022/10/02 23:46:52;;;;;;;6.70;2.95;;;;;;;;;;10571285;27;20219;-76
2022/10/02 23:52:01;;;;;;;7.50;3.30;;;;;;;;;;10561775;28;20366;-76
2022/10/02 23:57:13;;;;;;;10.07;3.17;;;;;;;;;;10546273;28;20293;-76
